Menu Close Menu
Station Historical Data
Daily Summary for April 3, 2017 Units:  Both    English   Metric
« Previous Day
Next Day »
Daily Weekly Monthly Yearly Custom
  High: Low: Average:
Temperature: 67.8 °F /  19.9 °C 60.0 °F /  15.6 °C 65.3 °F /  18.5 °C
Dew Point: 60.1 °F /  15.6 °C 49.6 °F /  9.8 °C 52.7 °F /  11.5 °C
Humidity: 91% 53% 65%
Wind Speed: 1.0mph /  1.6km/h - 0.1mph /  0.2km/h
Wind Gust: 7.0mph /  11.3km/h - -
Wind- - NW
Pressure: 29.99 in /  1015.5 hPa 29.64 in /  1003.6 hPa -
Precipitation: 0.00 in /  0 mm    
Historical Graphs
 
 
Tabular Data for April 3, 2017
Time Temperature Dew Point Pressure Wind Wind Speed Wind Gust Humidity Rainfall Rate (Hourly) solar Conditions
00:00 67.8 °F /  19.9 °C 50.0 °F /  10 °C 29.98in /  1015.1hPa Calm   1.0mph /  1.6km/h 53% 0.00in /  0mm 0.0 W/m2 SCT
00:15 67.6 °F /  19.8 °C 50.3 °F /  10.2 °C 29.99in /  1015.5hPa Calm   1.0mph /  1.6km/h 54% 0.00in /  0mm 0.0 W/m2 SCT
00:30 67.5 °F /  19.7 °C 50.8 °F /  10.4 °C 29.99in /  1015.5hPa Calm   1.0mph /  1.6km/h 55% 0.00in /  0mm 0.0 W/m2 SCT
00:45 67.2 °F /  19.6 °C 50.5 °F /  10.3 °C 29.97in /  1014.8hPa Calm   1.0mph /  1.6km/h 55% 0.00in /  0mm 0.0 W/m2 SCT
01:00 66.3 °F /  19.1 °C 49.6 °F /  9.8 °C 29.98in /  1015.1hPa Calm   1.0mph /  1.6km/h 55% 0.00in /  0mm 0.0 W/m2 SCT
01:15 66.3 °F /  19.1 °C 49.6 °F /  9.8 °C 29.97in /  1014.8hPa Calm     55% 0.00in /  0mm 0.0 W/m2 SCT
01:30 66.3 °F /  19.1 °C 49.6 °F /  9.8 °C 29.98in /  1015.1hPa Calm     55% 0.00in /  0mm 0.0 W/m2 SCT
01:45 66.3 °F /  19.1 °C 49.6 °F /  9.8 °C 29.97in /  1014.8hPa Calm     55% 0.00in /  0mm 0.0 W/m2 SCT
02:00 66.3 °F /  19.1 °C 49.6 °F /  9.8 °C 29.95in /  1014.1hPa Calm     55% 0.00in /  0mm 0.0 W/m2 SCT
02:15 66.3 °F /  19.1 °C 49.6 °F /  9.8 °C 29.93in /  1013.4hPa Calm   1.0mph /  1.6km/h 55% 0.00in /  0mm 0.0 W/m2 SCT
02:30 66.3 °F /  19.1 °C 49.6 °F /  9.8 °C 29.94in /  1013.8hPa Calm     55% 0.00in /  0mm 0.0 W/m2 SCT
02:45 66.3 °F /  19.1 °C 49.6 °F /  9.8 °C 29.94in /  1013.8hPa Calm     55% 0.00in /  0mm 0.0 W/m2 SCT
03:00 66.3 °F /  19.1 °C 49.6 °F /  9.8 °C 29.93in /  1013.4hPa Calm     55% 0.00in /  0mm 0.0 W/m2 SCT
03:15 66.3 °F /  19.1 °C 49.6 °F /  9.8 °C 29.93in /  1013.4hPa Calm     55% 0.00in /  0mm 0.0 W/m2 SCT
03:30 66.3 °F /  19.1 °C 49.6 °F /  9.8 °C 29.93in /  1013.4hPa Calm     55% 0.00in /  0mm 0.0 W/m2 SCT
03:45 66.3 °F /  19.1 °C 49.6 °F /  9.8 °C 29.92in /  1013.1hPa Calm     55% 0.00in /  0mm 0.0 W/m2 SCT
04:00 66.3 °F /  19.1 °C 49.6 °F /  9.8 °C 29.92in /  1013.1hPa Calm     55% 0.00in /  0mm 0.0 W/m2 SCT
04:15 66.3 °F /  19.1 °C 49.6 °F /  9.8 °C 29.93in /  1013.4hPa Calm     55% 0.00in /  0mm 0.0 W/m2 SCT
04:30 66.3 °F /  19.1 °C 49.6 °F /  9.8 °C 29.93in /  1013.4hPa Calm     55% 0.00in /  0mm 0.0 W/m2 SCT
04:45 66.3 °F /  19.1 °C 49.6 °F /  9.8 °C 29.93in /  1013.4hPa Calm     55% 0.00in /  0mm 0.0 W/m2 SCT
05:00 66.3 °F /  19.1 °C 49.6 °F /  9.8 °C 29.91in /  1012.8hPa Calm     55% 0.00in /  0mm 0.0 W/m2 SCT
05:15 66.3 °F /  19.1 °C 49.6 °F /  9.8 °C 29.90in /  1012.4hPa Calm     55% 0.00in /  0mm 0.0 W/m2 SCT
05:30 66.3 °F /  19.1 °C 49.6 °F /  9.8 °C 29.89in /  1012.1hPa Calm     55% 0.00in /  0mm 0.0 W/m2 SCT
05:45 66.3 °F /  19.1 °C 49.6 °F /  9.8 °C 29.88in /  1011.7hPa Calm     55% 0.00in /  0mm 0.0 W/m2 SCT
06:00 66.3 °F /  19.1 °C 49.6 °F /  9.8 °C 29.89in /  1012.1hPa Calm     55% 0.00in /  0mm 0.0 W/m2 SCT
06:15 66.3 °F /  19.1 °C 49.6 °F /  9.8 °C 29.89in /  1012.1hPa Calm     55% 0.00in /  0mm 0.0 W/m2 SCT
06:30 66.3 °F /  19.1 °C 49.6 °F /  9.8 °C 29.88in /  1011.7hPa Calm     55% 0.00in /  0mm 0.0 W/m2 SCT
06:45 66.3 °F /  19.1 °C 49.6 °F /  9.8 °C 29.87in /  1011.4hPa Calm     55% 0.00in /  0mm 0.0 W/m2 SCT
07:00 66.3 °F /  19.1 °C 49.6 °F /  9.8 °C 29.86in /  1011.1hPa Calm     55% 0.00in /  0mm 0.0 W/m2 SCT
07:15 66.3 °F /  19.1 °C 49.6 °F /  9.8 °C 29.86in /  1011.1hPa Calm     55% 0.00in /  0mm 0.0 W/m2 SCT
07:30 66.3 °F /  19.1 °C 49.6 °F /  9.8 °C 29.86in /  1011.1hPa Calm     55% 0.00in /  0mm 0.0 W/m2 SCT
07:45 66.3 °F /  19.1 °C 49.6 °F /  9.8 °C 29.86in /  1011.1hPa Calm     55% 0.00in /  0mm 0.0 W/m2 SCT
08:00 66.3 °F /  19.1 °C 49.6 °F /  9.8 °C 29.86in /  1011.1hPa Calm     55% 0.00in /  0mm 0.0 W/m2 SCT
08:15 66.3 °F /  19.1 °C 49.6 °F /  9.8 °C 29.86in /  1011.1hPa Calm     55% 0.00in /  0mm 0.0 W/m2 SCT
08:30 66.3 °F /  19.1 °C 49.6 °F /  9.8 °C 29.86in /  1011.1hPa Calm     55% 0.00in /  0mm 0.0 W/m2 SCT
08:45 66.3 °F /  19.1 °C 49.6 °F /  9.8 °C 29.84in /  1010.4hPa Calm     55% 0.00in /  0mm 0.0 W/m2 SCT
09:00 66.3 °F /  19.1 °C 49.6 °F /  9.8 °C 29.86in /  1011.1hPa Calm     55% 0.00in /  0mm 0.0 W/m2 SCT
09:15 66.3 °F /  19.1 °C 49.6 °F /  9.8 °C 29.85in /  1010.7hPa Calm     55% 0.00in /  0mm 0.0 W/m2 SCT
09:30 66.3 °F /  19.1 °C 49.6 °F /  9.8 °C 29.84in /  1010.4hPa Calm     55% 0.00in /  0mm 0.0 W/m2 SCT
09:45 66.3 °F /  19.1 °C 49.6 °F /  9.8 °C 29.83in /  1010hPa Calm     55% 0.00in /  0mm 0.0 W/m2 SCT
10:00 66.3 °F /  19.1 °C 49.6 °F /  9.8 °C 29.83in /  1010hPa Calm     55% 0.00in /  0mm 0.0 W/m2 SCT
10:15 66.3 °F /  19.1 °C 49.6 °F /  9.8 °C 29.85in /  1010.7hPa Calm     55% 0.00in /  0mm 0.0 W/m2 SCT
10:30 66.3 °F /  19.1 °C 49.6 °F /  9.8 °C 29.84in /  1010.4hPa Calm     55% 0.00in /  0mm 0.0 W/m2 SCT
10:45 66.3 °F /  19.1 °C 49.6 °F /  9.8 °C 29.84in /  1010.4hPa Calm     55% 0.00in /  0mm 0.0 W/m2 SCT
11:00 66.3 °F /  19.1 °C 49.6 °F /  9.8 °C 29.84in /  1010.4hPa Calm     55% 0.00in /  0mm 0.0 W/m2 SCT
11:15 66.3 °F /  19.1 °C 49.6 °F /  9.8 °C 29.84in /  1010.4hPa Calm     55% 0.00in /  0mm 0.0 W/m2 SCT
11:30 66.3 °F /  19.1 °C 49.6 °F /  9.8 °C 29.85in /  1010.7hPa Calm     55% 0.00in /  0mm 0.0 W/m2 SCT
11:45 66.3 °F /  19.1 °C 49.6 °F /  9.8 °C 29.90in /  1012.4hPa Calm     55% 0.00in /  0mm 0.0 W/m2 SCT
12:00 66.3 °F /  19.1 °C 49.6 °F /  9.8 °C 29.92in /  1013.1hPa Calm     55% 0.00in /  0mm 0.0 W/m2 SCT
12:15 66.3 °F /  19.1 °C 49.6 °F /  9.8 °C 29.92in /  1013.1hPa Calm     55% 0.00in /  0mm 0.0 W/m2 SCT
12:30 66.3 °F /  19.1 °C 49.6 °F /  9.8 °C 29.92in /  1013.1hPa Calm     55% 0.00in /  0mm 0.0 W/m2 SCT
12:45 66.3 °F /  19.1 °C 49.6 °F /  9.8 °C 29.92in /  1013.1hPa Calm     55% 0.00in /  0mm 0.0 W/m2 SCT
13:00 66.3 °F /  19.1 °C 49.6 °F /  9.8 °C 29.92in /  1013.1hPa Calm     55% 0.00in /  0mm 0.0 W/m2 SCT
13:15 66.3 °F /  19.1 °C 49.6 °F /  9.8 °C 29.91in /  1012.8hPa Calm     55% 0.00in /  0mm 0.0 W/m2 SCT
13:30 66.3 °F /  19.1 °C 49.6 °F /  9.8 °C 29.88in /  1011.7hPa Calm     55% 0.00in /  0mm 0.0 W/m2 SCT
13:45 66.3 °F /  19.1 °C 49.6 °F /  9.8 °C 29.88in /  1011.7hPa Calm     55% 0.00in /  0mm 0.0 W/m2 SCT
14:00 66.3 °F /  19.1 °C 49.6 °F /  9.8 °C 29.87in /  1011.4hPa Calm     55% 0.00in /  0mm 0.0 W/m2 SCT
14:15 66.3 °F /  19.1 °C 49.6 °F /  9.8 °C 29.86in /  1011.1hPa Calm     55% 0.00in /  0mm 0.0 W/m2 SCT
14:30 66.3 °F /  19.1 °C 49.6 °F /  9.8 °C 29.84in /  1010.4hPa Calm     55% 0.00in /  0mm 0.0 W/m2 SCT
14:45 66.3 °F /  19.1 °C 49.6 °F /  9.8 °C 29.78in /  1008.4hPa Calm     55% 0.00in /  0mm 0.0 W/m2 SCT
15:00 66.3 °F /  19.1 °C 49.6 °F /  9.8 °C 29.72in /  1006.3hPa Calm     55% 0.00in /  0mm 0.0 W/m2 SCT
15:15 66.3 °F /  19.1 °C 49.6 °F /  9.8 °C 29.67in /  1004.6hPa Calm     55% 0.00in /  0mm 0.0 W/m2 SCT
15:30 60.0 °F /  15.6 °C 57.1 °F /  13.9 °C 29.64in /  1003.6hPa WNW 1.0mph /  1.6km/h 5.0mph /  8km/h 90% 0.00in /  0mm 0.0 W/m2 SCT
15:45 61.2 °F /  16.2 °C 57.6 °F /  14.2 °C 29.66in /  1004.3hPa NW 1.0mph /  1.6km/h 7.0mph /  11.3km/h 88% 0.00in /  0mm 0.0 W/m2 SCT
16:00 61.9 °F /  16.6 °C 58.4 °F /  14.7 °C 29.67in /  1004.6hPa NW 1.0mph /  1.6km/h 5.0mph /  8km/h 88% 0.00in /  0mm 0.0 W/m2 SCT
16:15 62.5 °F /  16.9 °C 58.9 °F /  14.9 °C 29.68in /  1005hPa WNW 1.0mph /  1.6km/h 3.0mph /  4.8km/h 88% 0.00in /  0mm 0.0 W/m2 SCT
16:30 63.0 °F /  17.2 °C 58.7 °F /  14.8 °C 29.68in /  1005hPa NW 1.0mph /  1.6km/h 5.0mph /  8km/h 86% 0.00in /  0mm 0.0 W/m2 SCT
16:45 63.5 °F /  17.5 °C 59.2 °F /  15.1 °C 29.68in /  1005hPa Calm   3.0mph /  4.8km/h 86% 0.00in /  0mm 0.0 W/m2 SCT
17:00 63.7 °F /  17.6 °C 59.1 °F /  15.1 °C 29.68in /  1005hPa Calm   5.0mph /  8km/h 85% 0.00in /  0mm 0.0 W/m2 SCT
17:15 64.5 °F /  18.1 °C 59.2 °F /  15.1 °C 29.68in /  1005hPa NW 1.0mph /  1.6km/h 3.0mph /  4.8km/h 83% 0.00in /  0mm 0.0 W/m2 SCT
17:30 65.8 °F /  18.8 °C 60.1 °F /  15.6 °C 29.68in /  1005hPa NW 1.0mph /  1.6km/h 3.0mph /  4.8km/h 82% 0.00in /  0mm 0.0 W/m2 SCT
17:45 65.8 °F /  18.8 °C 59.1 °F /  15.1 °C 29.68in /  1005hPa WNW 1.0mph /  1.6km/h 5.0mph /  8km/h 79% 0.00in /  0mm 0.0 W/m2 SCT
18:15 66.3 °F /  19.1 °C 59.6 °F /  15.3 °C 29.68in /  1005hPa Calm   6.0mph /  9.7km/h 79% 0.00in /  0mm 0.0 W/m2 SCT
18:30 66.3 °F /  19.1 °C 59.6 °F /  15.3 °C 29.68in /  1005hPa Calm   3.0mph /  4.8km/h 79% 0.00in /  0mm 0.0 W/m2 SCT
18:45 66.4 °F /  19.1 °C 59.3 °F /  15.2 °C 29.68in /  1005hPa WNW 1.0mph /  1.6km/h 2.0mph /  3.2km/h 78% 0.00in /  0mm 0.0 W/m2 SCT
19:00 66.4 °F /  19.1 °C 59.7 °F /  15.4 °C 29.68in /  1005hPa Calm   3.0mph /  4.8km/h 79% 0.00in /  0mm 0.0 W/m2 SCT
19:15 65.9 °F /  18.8 °C 59.6 °F /  15.3 °C 29.69in /  1005.3hPa Calm   5.0mph /  8km/h 80% 0.00in /  0mm 0.0 W/m2 SCT
19:30 65.5 °F /  18.6 °C 59.5 °F /  15.3 °C 29.70in /  1005.6hPa Calm   2.0mph /  3.2km/h 81% 0.00in /  0mm 0.0 W/m2 SCT
19:45 65.0 °F /  18.3 °C 59.0 °F /  15 °C 29.70in /  1005.6hPa Calm   2.0mph /  3.2km/h 81% 0.00in /  0mm 0.0 W/m2 SCT
20:00 64.2 °F /  17.9 °C 59.0 °F /  15 °C 29.71in /  1006hPa Calm   1.0mph /  1.6km/h 83% 0.00in /  0mm 0.0 W/m2 SCT
20:15 63.5 °F /  17.5 °C 58.6 °F /  14.8 °C 29.72in /  1006.3hPa Calm   2.0mph /  3.2km/h 84% 0.00in /  0mm 0.0 W/m2 SCT
20:30 63.2 °F /  17.3 °C 58.6 °F /  14.8 °C 29.72in /  1006.3hPa Calm   1.0mph /  1.6km/h 85% 0.00in /  0mm 0.0 W/m2 SCT
20:45 62.8 °F /  17.1 °C 58.5 °F /  14.7 °C 29.72in /  1006.3hPa Calm     86% 0.00in /  0mm 0.0 W/m2 SCT
21:00 62.5 °F /  16.9 °C 58.3 °F /  14.6 °C 29.72in /  1006.3hPa Calm   1.0mph /  1.6km/h 86% 0.00in /  0mm 0.0 W/m2 SCT
21:15 62.0 °F /  16.7 °C 58.1 °F /  14.5 °C 29.72in /  1006.3hPa Calm   1.0mph /  1.6km/h 87% 0.00in /  0mm 0.0 W/m2 SCT
21:30 61.6 °F /  16.4 °C 57.7 °F /  14.3 °C 29.73in /  1006.7hPa Calm   1.0mph /  1.6km/h 87% 0.00in /  0mm 0.0 W/m2 SCT
21:45 61.4 °F /  16.3 °C 57.8 °F /  14.3 °C 29.73in /  1006.7hPa Calm   3.0mph /  4.8km/h 88% 0.00in /  0mm 0.0 W/m2 SCT
22:00 61.2 °F /  16.2 °C 57.6 °F /  14.2 °C 29.74in /  1007hPa Calm   1.0mph /  1.6km/h 88% 0.00in /  0mm 0.0 W/m2 SCT
22:15 60.9 °F /  16.1 °C 57.3 °F /  14.1 °C 29.75in /  1007.3hPa Calm   2.0mph /  3.2km/h 88% 0.00in /  0mm 0.0 W/m2 SCT
22:30 60.8 °F /  16 °C 57.5 °F /  14.2 °C 29.76in /  1007.7hPa Calm   1.0mph /  1.6km/h 89% 0.00in /  0mm 0.0 W/m2 SCT
22:45 60.7 °F /  15.9 °C 57.5 °F /  14.2 °C 29.76in /  1007.7hPa Calm   2.0mph /  3.2km/h 89% 0.00in /  0mm 0.0 W/m2 SCT
23:00 60.5 °F /  15.8 °C 57.5 °F /  14.2 °C 29.75in /  1007.3hPa Calm   1.0mph /  1.6km/h 90% 0.00in /  0mm 0.0 W/m2 SCT
23:15 60.1 °F /  15.6 °C 57.2 °F /  14 °C 29.76in /  1007.7hPa Calm     90% 0.00in /  0mm 0.0 W/m2 SCT
23:30 60.1 °F /  15.6 °C 57.5 °F /  14.2 °C 29.77in /  1008hPa Calm   1.0mph /  1.6km/h 91% 0.00in /  0mm 0.0 W/m2 SCT
Piedmont Bend
Compliments of Weather Underground - 4 mb